createdAt,value
2022-10-20T00:00:58.411Z,90.04
2022-10-20T00:06:18.716Z,90.48
2022-10-20T00:11:25.370Z,90.80
2022-10-20T00:16:34.638Z,90.94
2022-10-20T00:21:40.696Z,90.70
2022-10-20T00:26:46.465Z,90.80
2022-10-20T00:31:52.369Z,91.12
2022-10-20T00:36:58.270Z,91.78
2022-10-20T00:42:05.365Z,91.86
2022-10-20T00:47:14.412Z,91.51
2022-10-20T00:52:22.559Z,91.50
2022-10-20T00:57:29.755Z,91.35
2022-10-20T01:02:36.012Z,91.29
2022-10-20T01:07:42.294Z,91.26
2022-10-20T01:12:53.732Z,91.12
2022-10-20T01:18:08.745Z,91.30
2022-10-20T01:23:38.043Z,91.43
2022-10-20T01:28:51.880Z,91.41
2022-10-20T01:34:05.133Z,91.46
2022-10-20T01:39:16.690Z,91.83
2022-10-20T01:44:26.446Z,92.11
2022-10-20T01:49:32.422Z,92.15
2022-10-20T01:54:38.685Z,91.97
2022-10-20T02:00:01.464Z,92.24
2022-10-20T02:05:32.740Z,92.71
2022-10-20T02:10:45.021Z,92.25
2022-10-20T02:15:54.288Z,92.23
2022-10-20T02:21:03.600Z,92.28
2022-10-20T02:26:13.930Z,92.22
2022-10-20T02:31:20.426Z,92.33
2022-10-20T02:36:29.561Z,92.53
2022-10-20T02:41:35.906Z,92.51
2022-10-20T02:46:41.765Z,92.37
2022-10-20T02:51:47.712Z,92.36
2022-10-20T02:56:53.439Z,92.50
2022-10-20T03:01:59.262Z,92.53
2022-10-20T03:07:05.215Z,91.93
2022-10-20T03:12:11.155Z,91.80
2022-10-20T03:17:16.905Z,91.76
2022-10-20T03:22:22.849Z,91.75
2022-10-20T03:27:28.552Z,91.53
2022-10-20T03:32:35.015Z,91.60
2022-10-20T03:37:41.367Z,91.79
2022-10-20T03:42:47.321Z,92.11
2022-10-20T03:47:53.082Z,92.48
2022-10-20T03:52:58.919Z,92.97
2022-10-20T03:58:04.794Z,92.83
2022-10-20T04:03:10.639Z,92.12
2022-10-20T04:08:16.436Z,91.60
2022-10-20T04:13:22.240Z,91.68
2022-10-20T04:18:28.093Z,91.46
2022-10-20T04:23:33.887Z,92.06
2022-10-20T04:28:40.103Z,92.47
2022-10-20T04:33:46.155Z,92.30
2022-10-20T04:38:52.083Z,91.68
2022-10-20T04:43:57.946Z,91.82
2022-10-20T04:49:04.226Z,91.77
2022-10-20T04:54:10.066Z,91.75
2022-10-20T04:59:15.851Z,92.08
2022-10-20T05:04:22.002Z,92.49
2022-10-20T05:09:27.944Z,93.32
2022-10-20T05:14:33.812Z,93.41
2022-10-20T05:19:39.569Z,92.88
2022-10-20T05:24:45.595Z,92.58
2022-10-20T05:29:51.517Z,92.37
2022-10-20T05:34:57.298Z,92.47
2022-10-20T05:40:03.711Z,92.89
2022-10-20T05:45:11.212Z,92.97
2022-10-20T05:50:17.166Z,92.85
2022-10-20T05:55:23.021Z,92.82
2022-10-20T06:00:31.328Z,93.10
2022-10-20T06:05:37.168Z,93.50
2022-10-20T06:10:42.908Z,93.60
2022-10-20T06:15:49.234Z,93.88
2022-10-20T06:21:03.132Z,89.13
2022-10-20T06:26:11.075Z,84.05
2022-10-20T06:31:18.710Z,79.33
2022-10-20T06:36:25.231Z,75.90
2022-10-20T06:41:31.645Z,74.31
2022-10-20T06:46:38.587Z,73.99
2022-10-20T06:51:44.588Z,74.51
2022-10-20T06:56:50.701Z,75.27
2022-10-20T07:01:56.718Z,76.74
2022-10-20T07:07:02.509Z,77.27
2022-10-20T07:12:08.374Z,77.15
2022-10-20T07:17:14.407Z,78.15
2022-10-20T07:22:20.125Z,77.99
2022-10-20T07:27:25.864Z,74.39
2022-10-20T07:32:32.305Z,67.83
2022-10-20T07:37:38.724Z,61.77
2022-10-20T07:42:44.692Z,54.42
2022-10-20T07:47:51.021Z,48.42
2022-10-20T07:52:57.113Z,48.79
2022-10-20T07:58:02.905Z,50.82
2022-10-20T08:03:10.857Z,52.95
2022-10-20T08:08:16.823Z,55.15
2022-10-20T08:13:22.723Z,56.88
2022-10-20T08:18:30.215Z,59.11
2022-10-20T08:23:37.625Z,61.22
2022-10-20T08:28:43.337Z,61.72
2022-10-20T08:33:52.550Z,62.65
2022-10-20T08:39:03.563Z,63.88
2022-10-20T08:44:18.303Z,64.27
2022-10-20T08:49:29.346Z,64.71
2022-10-20T08:54:35.916Z,64.52
2022-10-20T08:59:41.664Z,63.67
2022-10-20T09:04:52.363Z,62.33
2022-10-20T09:10:07.799Z,61.36
2022-10-20T09:15:15.837Z,61.06
2022-10-20T09:20:25.821Z,59.89
2022-10-20T09:25:32.256Z,56.41
2022-10-20T09:30:38.659Z,54.63
2022-10-20T09:35:49.284Z,52.91
2022-10-20T09:40:58.716Z,51.31
2022-10-20T09:46:07.611Z,49.78
2022-10-20T09:51:18.722Z,48.63
2022-10-20T09:56:33.410Z,45.98
2022-10-20T10:01:55.009Z,44.66
2022-10-20T10:07:01.148Z,45.39
2022-10-20T10:12:19.706Z,45.69
2022-10-20T10:17:34.108Z,47.31
2022-10-20T10:22:40.847Z,49.54
2022-10-20T10:28:00.732Z,50.03
2022-10-20T10:33:26.501Z,48.74
2022-10-20T10:38:32.456Z,46.83
2022-10-20T10:43:48.765Z,46.73
2022-10-20T10:49:24.109Z,46.76
2022-10-20T10:54:47.083Z,46.96
2022-10-20T10:59:54.841Z,47.62
2022-10-20T11:05:21.990Z,48.22
2022-10-20T11:10:36.785Z,49.03
2022-10-20T11:15:52.042Z,49.92
2022-10-20T11:21:08.860Z,51.98
2022-10-20T11:26:24.263Z,51.44
2022-10-20T11:31:34.621Z,48.44
2022-10-20T11:36:45.155Z,47.26
2022-10-20T11:41:56.881Z,46.88
2022-10-20T11:47:07.695Z,45.51
2022-10-20T11:52:49.498Z,45.43
2022-10-20T11:58:10.758Z,44.33
2022-10-20T12:03:38.355Z,45.08
2022-10-20T12:09:00.223Z,45.82
2022-10-20T12:14:19.282Z,46.55
2022-10-20T12:19:26.837Z,47.77
2022-10-20T12:24:38.060Z,47.86
2022-10-20T12:30:02.165Z,48.44
2022-10-20T12:35:53.121Z,49.05
2022-10-20T12:41:01.244Z,49.24
2022-10-20T12:46:16.276Z,49.02
2022-10-20T12:51:33.923Z,49.71
2022-10-20T12:56:42.192Z,50.02
2022-10-20T13:02:29.418Z,50.26
2022-10-20T13:08:00.454Z,51.60
2022-10-20T13:13:41.348Z,52.13
2022-10-20T13:18:51.549Z,52.36
2022-10-20T13:24:03.428Z,52.39
2022-10-20T13:29:17.947Z,52.06
2022-10-20T13:34:30.393Z,52.56
2022-10-20T13:39:47.960Z,53.43
2022-10-20T13:45:03.863Z,53.47
2022-10-20T13:50:13.830Z,53.23
2022-10-20T13:55:22.775Z,53.40
2022-10-20T14:00:31.290Z,53.66
2022-10-20T14:05:40.351Z,53.78
2022-10-20T14:10:51.788Z,54.27
2022-10-20T14:15:59.164Z,54.51
2022-10-20T14:21:08.504Z,54.75
2022-10-20T14:26:16.204Z,55.24
2022-10-20T14:31:24.839Z,55.66
2022-10-20T14:36:31.464Z,55.82
2022-10-20T14:41:37.595Z,55.91
2022-10-20T14:46:47.953Z,56.47
2022-10-20T14:51:59.010Z,56.58
2022-10-20T14:57:37.808Z,56.87
2022-10-20T15:02:45.789Z,57.99
2022-10-20T15:07:51.950Z,58.35
2022-10-20T15:12:57.938Z,58.92
2022-10-20T15:18:16.408Z,59.44
2022-10-20T15:23:24.174Z,59.96
2022-10-20T15:28:47.017Z,60.70
2022-10-20T15:33:53.459Z,61.27
2022-10-20T15:38:59.834Z,61.87
2022-10-20T15:44:13.258Z,63.48
2022-10-20T15:49:19.424Z,64.77
2022-10-20T15:54:25.404Z,64.81
2022-10-20T15:59:31.384Z,64.68
2022-10-20T16:04:37.150Z,64.82
2022-10-20T16:09:43.221Z,65.01
2022-10-20T16:14:49.133Z,65.65
2022-10-20T16:19:54.954Z,66.54
2022-10-20T16:25:01.529Z,66.26
2022-10-20T16:30:09.797Z,66.60
2022-10-20T16:35:15.725Z,66.59
2022-10-20T16:40:21.732Z,66.56
2022-10-20T16:45:27.673Z,67.07
2022-10-20T16:50:33.883Z,67.50
2022-10-20T16:55:40.080Z,67.56
2022-10-20T17:00:45.887Z,67.82
2022-10-20T17:05:58.101Z,68.19
2022-10-20T17:11:06.605Z,68.41
2022-10-20T17:16:14.938Z,69.11
2022-10-20T17:21:21.178Z,69.81
2022-10-20T17:26:32.851Z,70.05
2022-10-20T17:31:39.130Z,70.55
2022-10-20T17:36:44.960Z,71.04
2022-10-20T17:41:50.897Z,71.17
2022-10-20T17:46:58.732Z,71.32
2022-10-20T17:52:04.842Z,71.94
2022-10-20T17:57:10.832Z,72.27
2022-10-20T18:02:16.787Z,72.29
2022-10-20T18:07:22.686Z,72.22
2022-10-20T18:12:28.495Z,72.47
2022-10-20T18:17:34.748Z,72.57
2022-10-20T18:22:40.675Z,72.24
2022-10-20T18:27:46.559Z,72.27
2022-10-20T18:32:52.632Z,72.46
2022-10-20T18:37:58.306Z,72.88
2022-10-20T18:43:04.172Z,73.25
2022-10-20T18:48:10.000Z,73.63
2022-10-20T18:53:15.740Z,74.31
2022-10-20T18:58:21.460Z,74.54
2022-10-20T19:03:31.150Z,75.03
2022-10-20T19:08:38.632Z,75.17
2022-10-20T19:13:44.457Z,75.51
2022-10-20T19:18:52.178Z,75.97
2022-10-20T19:24:01.264Z,76.26
2022-10-20T19:29:09.677Z,76.61
2022-10-20T19:34:19.268Z,76.89
2022-10-20T19:39:27.538Z,77.25
2022-10-20T19:44:34.219Z,77.70
2022-10-20T19:49:40.962Z,78.24
2022-10-20T19:54:46.706Z,78.68
2022-10-20T19:59:52.897Z,78.53
2022-10-20T20:04:58.668Z,78.88
2022-10-20T20:10:05.872Z,79.74
2022-10-20T20:15:11.676Z,79.47
2022-10-20T20:20:17.738Z,79.66
2022-10-20T20:25:23.539Z,79.92
2022-10-20T20:30:29.251Z,80.18
2022-10-20T20:35:35.171Z,80.57
2022-10-20T20:40:46.456Z,81.14
2022-10-20T20:45:52.311Z,81.39
2022-10-20T20:51:00.520Z,82.09
2022-10-20T20:56:08.665Z,83.09
2022-10-20T21:01:16.829Z,82.87
2022-10-20T21:06:28.771Z,82.94
2022-10-20T21:11:39.888Z,82.88
2022-10-20T21:16:46.185Z,82.79
2022-10-20T21:21:57.209Z,82.80
2022-10-20T21:27:03.578Z,82.91
2022-10-20T21:32:09.254Z,83.00
2022-10-20T21:37:15.015Z,83.04
2022-10-20T21:42:21.016Z,83.17
2022-10-20T21:47:26.824Z,83.26
2022-10-20T21:52:32.662Z,83.01
2022-10-20T21:57:38.703Z,83.03
2022-10-20T22:02:47.690Z,83.15
2022-10-20T22:07:53.471Z,83.25
2022-10-20T22:12:59.237Z,83.09
2022-10-20T22:18:05.678Z,83.19
2022-10-20T22:23:11.487Z,83.65
2022-10-20T22:28:17.367Z,83.71
2022-10-20T22:33:23.570Z,83.92
2022-10-20T22:38:29.309Z,84.76
2022-10-20T22:43:35.075Z,84.81
2022-10-20T22:48:41.010Z,84.71
2022-10-20T22:53:46.756Z,84.90
2022-10-20T22:58:54.001Z,85.19
2022-10-20T23:03:59.819Z,85.45
2022-10-20T23:09:06.133Z,86.27
2022-10-20T23:14:12.985Z,86.04
2022-10-20T23:19:18.835Z,85.89
2022-10-20T23:24:24.667Z,85.93
2022-10-20T23:29:30.973Z,85.60
2022-10-20T23:34:37.685Z,85.60
2022-10-20T23:39:43.451Z,85.17
2022-10-20T23:44:49.183Z,84.86
2022-10-20T23:49:55.119Z,84.85
2022-10-20T23:55:00.842Z,85.04
